createdAt,value
2023-05-17T00:01:06.229Z,37
2023-05-17T00:11:11.891Z,38
2023-05-17T00:21:17.605Z,36
2023-05-17T00:31:22.092Z,31
2023-05-17T00:41:27.878Z,8
2023-05-17T00:51:34.319Z,9
2023-05-17T01:01:40.371Z,7
2023-05-17T01:11:44.317Z,10
2023-05-17T01:21:50.617Z,10
2023-05-17T01:31:57.382Z,9
2023-05-17T01:42:03.234Z,8
2023-05-17T01:52:08.695Z,9
2023-05-17T02:02:15.697Z,9
2023-05-17T02:12:22.262Z,7
2023-05-17T02:22:26.937Z,8
2023-05-17T02:32:31.756Z,9
2023-05-17T02:42:37.614Z,9
2023-05-17T02:52:45.291Z,11
2023-05-17T03:02:50.757Z,10
2023-05-17T03:12:54.994Z,7
2023-05-17T03:22:59.920Z,7
2023-05-17T03:33:06.926Z,11
2023-05-17T03:43:13.451Z,8
2023-05-17T03:53:19.954Z,7
2023-05-17T04:03:26.205Z,6
2023-05-17T04:13:33.717Z,8
2023-05-17T04:23:39.091Z,7
2023-05-17T04:33:47.268Z,7
2023-05-17T04:43:52.934Z,7
2023-05-17T04:53:58.784Z,8
2023-05-17T05:04:05.755Z,14
2023-05-17T05:14:13.331Z,10
2023-05-17T05:24:19.312Z,10
2023-05-17T05:34:25.292Z,8
2023-05-17T05:44:30.002Z,7
2023-05-17T05:54:34.975Z,10
2023-05-17T06:04:44.980Z,6
2023-05-17T06:14:46.646Z,8
2023-05-17T06:24:53.905Z,9
2023-05-17T06:34:59.993Z,10
2023-05-17T06:45:06.561Z,8
2023-05-17T06:55:12.959Z,7
2023-05-17T07:05:19.462Z,7
2023-05-17T07:15:26.481Z,9
2023-05-17T07:25:32.986Z,9
2023-05-17T07:35:39.689Z,10
2023-05-17T07:45:46.132Z,10
2023-05-17T07:55:53.126Z,7
2023-05-17T08:05:59.023Z,8
2023-05-17T08:16:13.353Z,9
2023-05-17T08:26:10.595Z,7
2023-05-17T08:36:16.639Z,7
2023-05-17T08:46:22.210Z,9
2023-05-17T08:56:31.097Z,9
2023-05-17T09:06:36.193Z,11
2023-05-17T09:16:43.246Z,8
2023-05-17T09:26:50.794Z,10
2023-05-17T09:36:58.437Z,15
2023-05-17T09:47:02.366Z,10
2023-05-17T09:57:07.756Z,9
2023-05-17T10:07:33.920Z,22
2023-05-17T10:17:27.969Z,29
2023-05-17T10:27:34.985Z,15
2023-05-17T10:37:40.837Z,8
2023-05-17T10:47:47.299Z,13
2023-05-17T10:57:54.602Z,9
2023-05-17T11:07:58.135Z,11
2023-05-17T11:18:03.873Z,8
2023-05-17T11:28:09.274Z,8
2023-05-17T11:38:16.739Z,8
2023-05-17T11:48:24.272Z,9
2023-05-17T11:58:28.344Z,9
2023-05-17T12:08:36.934Z,7
2023-05-17T12:18:43.099Z,6
2023-05-17T12:28:49.549Z,10
2023-05-17T12:38:54.751Z,7
2023-05-17T12:49:01.088Z,7
2023-05-17T12:59:06.771Z,7
2023-05-17T13:09:15.885Z,7
2023-05-17T13:19:21.746Z,8
2023-05-17T13:29:35.568Z,7
2023-05-17T13:39:35.778Z,8
2023-05-17T13:49:43.538Z,8
2023-05-17T13:59:51.320Z,9
2023-05-17T14:09:58.505Z,7
2023-05-17T14:20:06.659Z,9
2023-05-17T14:30:13.478Z,7
2023-05-17T14:40:38.316Z,8
2023-05-17T14:50:31.995Z,10
2023-05-17T15:00:38.385Z,8
2023-05-17T15:10:45.341Z,10
2023-05-17T15:20:52.126Z,10
2023-05-17T15:31:00.232Z,11
2023-05-17T15:41:05.052Z,12
2023-05-17T15:51:11.156Z,11
2023-05-17T16:01:17.227Z,14
2023-05-17T16:11:25.012Z,13
2023-05-17T16:21:31.506Z,16
2023-05-17T16:31:39.010Z,9
2023-05-17T16:41:45.997Z,11
2023-05-17T16:51:53.846Z,10
2023-05-17T17:02:01.141Z,10
2023-05-17T17:12:20.418Z,7
2023-05-17T17:22:20.159Z,13
2023-05-17T17:32:24.872Z,8
2023-05-17T17:42:32.305Z,8
2023-05-17T17:52:39.039Z,7
2023-05-17T18:02:44.142Z,9
2023-05-17T18:12:51.781Z,5
2023-05-17T18:22:56.770Z,9
2023-05-17T18:33:04.696Z,9
2023-05-17T18:43:11.130Z,7
2023-05-17T18:53:17.067Z,8
2023-05-17T19:03:21.994Z,10
2023-05-17T19:13:30.306Z,10
2023-05-17T19:23:34.485Z,7
2023-05-17T19:33:42.261Z,10
2023-05-17T19:43:48.976Z,9
2023-05-17T19:53:54.692Z,5
2023-05-17T20:04:01.919Z,10
2023-05-17T20:14:08.497Z,12
2023-05-17T20:24:16.008Z,11
2023-05-17T20:34:21.937Z,12
2023-05-17T20:44:28.610Z,11
2023-05-17T20:54:34.517Z,10
2023-05-17T21:04:41.652Z,9
2023-05-17T21:14:54.396Z,8
2023-05-17T21:24:54.567Z,11
2023-05-17T21:34:59.613Z,10
2023-05-17T21:45:06.097Z,10
2023-05-17T21:55:11.716Z,10
2023-05-17T22:05:16.875Z,8
2023-05-17T22:15:22.100Z,9
2023-05-17T22:25:27.926Z,11
2023-05-17T22:35:33.341Z,8
2023-05-17T22:45:39.406Z,10
2023-05-17T22:55:45.942Z,10
2023-05-17T23:05:51.219Z,10
2023-05-17T23:15:58.363Z,10
2023-05-17T23:26:04.146Z,9
2023-05-17T23:36:09.935Z,10
2023-05-17T23:46:16.380Z,10
2023-05-17T23:56:23.107Z,10
